sensor_id;sensor_type;location;lat;lon;timestamp;pressure;altitude;pressure_sealevel;temperature;humidity
12913;BME280;6524;51.368;11.984;2022-12-10T00:03:26;99479.09;;;3.27;94.47
12913;BME280;6524;51.368;11.984;2022-12-10T00:08:26;99477.34;;;3.29;94.59
12913;BME280;6524;51.368;11.984;2022-12-10T00:13:26;99480.16;;;3.17;95.38
12913;BME280;6524;51.368;11.984;2022-12-10T00:18:27;99478.38;;;3.20;94.69
12913;BME280;6524;51.368;11.984;2022-12-10T00:23:27;99481.63;;;3.29;95.27
12913;BME280;6524;51.368;11.984;2022-12-10T00:28:27;99473.94;;;3.27;95.14
12913;BME280;6524;51.368;11.984;2022-12-10T00:33:28;99467.84;;;3.33;94.81
12913;BME280;6524;51.368;11.984;2022-12-10T00:38:29;99472.06;;;3.35;94.77
12913;BME280;6524;51.368;11.984;2022-12-10T00:43:29;99474.91;;;3.21;95.88
12913;BME280;6524;51.368;11.984;2022-12-10T00:48:30;99479.25;;;3.18;95.59
12913;BME280;6524;51.368;11.984;2022-12-10T00:53:32;99486.16;;;3.16;95.32
12913;BME280;6524;51.368;11.984;2022-12-10T00:58:34;99482.00;;;3.09;95.87
12913;BME280;6524;51.368;11.984;2022-12-10T01:03:35;99488.13;;;3.01;96.99
12913;BME280;6524;51.368;11.984;2022-12-10T01:08:36;99493.16;;;3.08;96.09
12913;BME280;6524;51.368;11.984;2022-12-10T01:13:37;99499.97;;;3.12;95.88
12913;BME280;6524;51.368;11.984;2022-12-10T01:18:38;99499.41;;;2.91;97.39
12913;BME280;6524;51.368;11.984;2022-12-10T01:23:41;99488.06;;;3.05;96.76
12913;BME280;6524;51.368;11.984;2022-12-10T01:28:42;99494.41;;;2.85;97.44
12913;BME280;6524;51.368;11.984;2022-12-10T01:33:43;99491.66;;;2.94;97.71
12913;BME280;6524;51.368;11.984;2022-12-10T01:38:44;99494.81;;;3.12;96.55
12913;BME280;6524;51.368;11.984;2022-12-10T01:43:51;99496.53;;;3.11;96.58
12913;BME280;6524;51.368;11.984;2022-12-10T01:48:52;99502.22;;;3.30;95.73
12913;BME280;6524;51.368;11.984;2022-12-10T01:53:53;99511.84;;;3.19;96.36
12913;BME280;6524;51.368;11.984;2022-12-10T01:58:55;99507.63;;;3.15;96.29
12913;BME280;6524;51.368;11.984;2022-12-10T02:04:25;99507.66;;;3.13;95.89
12913;BME280;6524;51.368;11.984;2022-12-10T02:09:43;99501.06;;;2.97;96.82
12913;BME280;6524;51.368;11.984;2022-12-10T02:15:00;99507.97;;;2.95;96.40
12913;BME280;6524;51.368;11.984;2022-12-10T05:04:50;99515.66;;;2.96;93.92
12913;BME280;6524;51.368;11.984;2022-12-10T05:09:50;99521.75;;;2.91;94.41
12913;BME280;6524;51.368;11.984;2022-12-10T05:14:50;99515.69;;;2.93;94.31
12913;BME280;6524;51.368;11.984;2022-12-10T05:19:51;99513.06;;;2.96;93.47
12913;BME280;6524;51.368;11.984;2022-12-10T05:24:52;99521.00;;;2.84;94.46
12913;BME280;6524;51.368;11.984;2022-12-10T05:29:52;99520.09;;;2.87;93.54
12913;BME280;6524;51.368;11.984;2022-12-10T05:34:52;99527.94;;;2.79;94.07
12913;BME280;6524;51.368;11.984;2022-12-10T05:39:52;99539.97;;;2.77;94.79
12913;BME280;6524;51.368;11.984;2022-12-10T05:44:53;99540.69;;;2.87;93.07
12913;BME280;6524;51.368;11.984;2022-12-10T05:49:53;99542.50;;;2.78;93.31
12913;BME280;6524;51.368;11.984;2022-12-10T05:54:53;99548.63;;;2.73;93.66
12913;BME280;6524;51.368;11.984;2022-12-10T05:59:54;99551.97;;;2.78;93.21
12913;BME280;6524;51.368;11.984;2022-12-10T06:04:54;99542.88;;;2.54;93.83
12913;BME280;6524;51.368;11.984;2022-12-10T06:09:54;99546.13;;;2.67;94.12
12913;BME280;6524;51.368;11.984;2022-12-10T06:14:55;99548.63;;;2.73;94.41
12913;BME280;6524;51.368;11.984;2022-12-10T06:19:55;99553.09;;;2.60;93.80
12913;BME280;6524;51.368;11.984;2022-12-10T06:24:55;99565.19;;;2.52;94.88
12913;BME280;6524;51.368;11.984;2022-12-10T06:29:55;99566.84;;;2.56;95.10
12913;BME280;6524;51.368;11.984;2022-12-10T06:34:56;99567.69;;;2.57;95.02
12913;BME280;6524;51.368;11.984;2022-12-10T06:39:56;99569.34;;;2.64;93.82
12913;BME280;6524;51.368;11.984;2022-12-10T06:44:57;99583.09;;;2.60;93.76
12913;BME280;6524;51.368;11.984;2022-12-10T06:49:57;99592.47;;;2.65;94.04
12913;BME280;6524;51.368;11.984;2022-12-10T06:54:57;99598.44;;;2.66;93.00
12913;BME280;6524;51.368;11.984;2022-12-10T06:59:58;99600.13;;;2.70;92.97
12913;BME280;6524;51.368;11.984;2022-12-10T07:04:58;99598.50;;;2.63;92.87
12913;BME280;6524;51.368;11.984;2022-12-10T07:09:58;99605.47;;;2.54;93.49
12913;BME280;6524;51.368;11.984;2022-12-10T07:14:58;99604.56;;;2.60;92.88
12913;BME280;6524;51.368;11.984;2022-12-10T07:19:59;99607.09;;;2.62;92.89
12913;BME280;6524;51.368;11.984;2022-12-10T07:24:59;99603.75;;;2.53;92.55
12913;BME280;6524;51.368;11.984;2022-12-10T07:29:59;99611.19;;;2.75;91.74
12913;BME280;6524;51.368;11.984;2022-12-10T07:35:00;99607.97;;;2.59;92.47
12913;BME280;6524;51.368;11.984;2022-12-10T07:40:00;99606.06;;;2.75;92.09
12913;BME280;6524;51.368;11.984;2022-12-10T07:45:00;99611.34;;;2.64;92.27
12913;BME280;6524;51.368;11.984;2022-12-10T07:50:01;99609.50;;;2.72;91.12
12913;BME280;6524;51.368;11.984;2022-12-10T07:55:01;99614.63;;;2.75;91.56
12913;BME280;6524;51.368;11.984;2022-12-10T08:00:03;99612.00;;;2.80;90.30
12913;BME280;6524;51.368;11.984;2022-12-10T08:05:03;99623.94;;;2.84;89.82
12913;BME280;6524;51.368;11.984;2022-12-10T08:10:04;99629.06;;;2.87;90.08
12913;BME280;6524;51.368;11.984;2022-12-10T08:15:05;99621.28;;;2.92;90.01
12913;BME280;6524;51.368;11.984;2022-12-10T08:20:06;99635.84;;;2.93;89.35
12913;BME280;6524;51.368;11.984;2022-12-10T08:25:06;99644.47;;;2.90;89.38
12913;BME280;6524;51.368;11.984;2022-12-10T08:30:08;99650.63;;;2.80;90.22
12913;BME280;6524;51.368;11.984;2022-12-10T08:35:08;99656.13;;;2.49;91.35
12913;BME280;6524;51.368;11.984;2022-12-10T08:40:09;99655.25;;;2.52;91.21
12913;BME280;6524;51.368;11.984;2022-12-10T08:45:09;99656.22;;;2.42;90.74
12913;BME280;6524;51.368;11.984;2022-12-10T08:50:10;99660.59;;;2.35;92.12
12913;BME280;6524;51.368;11.984;2022-12-10T08:55:10;99657.34;;;2.15;93.39
12913;BME280;6524;51.368;11.984;2022-12-10T09:00:11;99659.59;;;2.45;92.37
12913;BME280;6524;51.368;11.984;2022-12-10T09:05:13;99652.00;;;2.36;93.55
12913;BME280;6524;51.368;11.984;2022-12-10T09:10:14;99653.69;;;2.37;91.36
12913;BME280;6524;51.368;11.984;2022-12-10T09:15:14;99659.78;;;2.28;92.55
12913;BME280;6524;51.368;11.984;2022-12-10T09:20:14;99656.09;;;2.52;91.61
12913;BME280;6524;51.368;11.984;2022-12-10T09:25:15;99651.19;;;2.31;93.16
12913;BME280;6524;51.368;11.984;2022-12-10T09:30:17;99655.31;;;2.44;93.25
12913;BME280;6524;51.368;11.984;2022-12-10T09:35:17;99672.38;;;2.54;92.70
12913;BME280;6524;51.368;11.984;2022-12-10T09:40:24;99682.91;;;2.30;92.92
12913;BME280;6524;51.368;11.984;2022-12-10T09:51:05;99663.31;;;6.06;92.97
12913;BME280;6524;51.368;11.984;2022-12-10T09:56:17;99664.38;;;7.22;80.25
12913;BME280;6524;51.368;11.984;2022-12-10T10:12:46;99664.47;;;5.94;73.14
12913;BME280;6524;51.368;11.984;2022-12-10T10:17:48;99659.84;;;4.53;79.65
12913;BME280;6524;51.368;11.984;2022-12-10T10:22:55;99655.16;;;3.80;82.72
12913;BME280;6524;51.368;11.984;2022-12-10T10:27:57;99668.69;;;3.39;85.44
12913;BME280;6524;51.368;11.984;2022-12-10T10:33:01;99658.72;;;3.14;86.38
12913;BME280;6524;51.368;11.984;2022-12-10T10:38:16;99667.47;;;3.03;88.84
12913;BME280;6524;51.368;11.984;2022-12-10T10:43:32;99662.31;;;3.03;87.96
12913;BME280;6524;51.368;11.984;2022-12-10T10:48:33;99657.44;;;2.81;89.93
12913;BME280;6524;51.368;11.984;2022-12-10T10:53:45;99659.25;;;2.74;89.66
12913;BME280;6524;51.368;11.984;2022-12-10T10:59:00;99664.50;;;2.65;90.04
12913;BME280;6524;51.368;11.984;2022-12-10T11:04:02;99654.88;;;2.81;90.37
12913;BME280;6524;51.368;11.984;2022-12-10T11:09:04;99653.09;;;2.86;89.69
12913;BME280;6524;51.368;11.984;2022-12-10T11:15:00;99649.44;;;3.03;89.49
12913;BME280;6524;51.368;11.984;2022-12-10T11:24:56;99654.56;;;3.06;90.59
12913;BME280;6524;51.368;11.984;2022-12-10T11:30:13;99650.41;;;2.95;89.99
12913;BME280;6524;51.368;11.984;2022-12-10T11:40:49;99668.28;;;3.08;89.56
12913;BME280;6524;51.368;11.984;2022-12-10T11:51:05;99662.47;;;2.90;90.33
12913;BME280;6524;51.368;11.984;2022-12-10T11:56:38;99658.13;;;2.95;90.39
12913;BME280;6524;51.368;11.984;2022-12-10T12:07:02;99659.94;;;2.89;89.58
12913;BME280;6524;51.368;11.984;2022-12-10T12:17:23;99657.25;;;2.98;88.93
12913;BME280;6524;51.368;11.984;2022-12-10T12:22:27;99663.94;;;3.10;89.86
12913;BME280;6524;51.368;11.984;2022-12-10T12:27:43;99650.38;;;2.97;89.78
12913;BME280;6524;51.368;11.984;2022-12-10T12:33:05;99656.41;;;2.94;89.51
12913;BME280;6524;51.368;11.984;2022-12-10T12:38:28;99659.81;;;2.96;89.77
12913;BME280;6524;51.368;11.984;2022-12-10T12:48:53;99671.78;;;3.00;89.66
12913;BME280;6524;51.368;11.984;2022-12-10T12:53:56;99677.63;;;3.13;89.85
12913;BME280;6524;51.368;11.984;2022-12-10T13:04:33;99677.84;;;2.96;89.75
12913;BME280;6524;51.368;11.984;2022-12-10T13:09:43;99682.16;;;2.94;89.99
12913;BME280;6524;51.368;11.984;2022-12-10T13:15:02;99682.06;;;3.00;90.38
12913;BME280;6524;51.368;11.984;2022-12-10T13:25:55;99690.47;;;3.15;88.48
12913;BME280;6524;51.368;11.984;2022-12-10T13:36:25;99687.06;;;3.13;89.36
12913;BME280;6524;51.368;11.984;2022-12-10T13:41:26;99682.66;;;3.78;97.73
12913;BME280;6524;51.368;11.984;2022-12-10T13:47:00;99703.53;;;3.63;87.28
12913;BME280;6524;51.368;11.984;2022-12-10T13:52:05;99703.84;;;3.41;87.45
12913;BME280;6524;51.368;11.984;2022-12-10T14:02:42;99709.06;;;3.35;89.70
12913;BME280;6524;51.368;11.984;2022-12-10T14:07:48;99716.06;;;3.27;89.77
12913;BME280;6524;51.368;11.984;2022-12-10T14:12:50;99711.81;;;3.24;89.79
12913;BME280;6524;51.368;11.984;2022-12-10T14:17:55;99712.00;;;3.09;90.45
12913;BME280;6524;51.368;11.984;2022-12-10T14:23:04;99713.53;;;3.24;90.27
12913;BME280;6524;51.368;11.984;2022-12-10T14:28:23;99707.47;;;3.28;89.90
12913;BME280;6524;51.368;11.984;2022-12-10T14:33:24;99717.72;;;3.31;89.09
12913;BME280;6524;51.368;11.984;2022-12-10T14:38:30;99723.16;;;3.10;90.00
12913;BME280;6524;51.368;11.984;2022-12-10T14:43:36;99723.28;;;3.00;90.37
12913;BME280;6524;51.368;11.984;2022-12-10T14:48:40;99724.00;;;3.10;90.23
12913;BME280;6524;51.368;11.984;2022-12-10T14:53:42;99720.66;;;3.05;90.54
12913;BME280;6524;51.368;11.984;2022-12-10T14:58:47;99722.66;;;2.83;92.41
12913;BME280;6524;51.368;11.984;2022-12-10T15:03:49;99730.16;;;3.01;92.30
12913;BME280;6524;51.368;11.984;2022-12-10T15:08:54;99733.66;;;2.94;91.49
12913;BME280;6524;51.368;11.984;2022-12-10T15:14:00;99731.28;;;2.77;93.93
12913;BME280;6524;51.368;11.984;2022-12-10T15:24:36;99744.09;;;2.85;93.94
12913;BME280;6524;51.368;11.984;2022-12-10T15:29:38;99739.06;;;2.73;94.66
12913;BME280;6524;51.368;11.984;2022-12-10T15:34:42;99745.78;;;2.86;93.63
12913;BME280;6524;51.368;11.984;2022-12-10T15:39:49;99752.78;;;2.72;93.32
12913;BME280;6524;51.368;11.984;2022-12-10T15:44:54;99761.34;;;2.74;93.55
12913;BME280;6524;51.368;11.984;2022-12-10T15:49:56;99759.38;;;2.94;92.58
12913;BME280;6524;51.368;11.984;2022-12-10T15:54:57;99771.50;;;2.89;93.14
12913;BME280;6524;51.368;11.984;2022-12-10T16:00:00;99774.66;;;3.10;92.65
12913;BME280;6524;51.368;11.984;2022-12-10T16:05:24;99777.28;;;3.08;91.32
12913;BME280;6524;51.368;11.984;2022-12-10T16:10:26;99782.63;;;2.88;92.04
12913;BME280;6524;51.368;11.984;2022-12-10T16:15:29;99785.22;;;2.88;91.93
12913;BME280;6524;51.368;11.984;2022-12-10T16:20:32;99792.16;;;2.83;92.29
12913;BME280;6524;51.368;11.984;2022-12-10T16:25:33;99792.19;;;2.80;92.44
12913;BME280;6524;51.368;11.984;2022-12-10T16:30:43;99794.69;;;2.86;92.29
12913;BME280;6524;51.368;11.984;2022-12-10T16:35:46;99785.34;;;2.79;91.71
12913;BME280;6524;51.368;11.984;2022-12-10T16:40:48;99787.88;;;2.81;92.28
12913;BME280;6524;51.368;11.984;2022-12-10T16:45:49;99787.88;;;2.81;92.05
12913;BME280;6524;51.368;11.984;2022-12-10T16:50:51;99786.16;;;2.83;92.27
12913;BME280;6524;51.368;11.984;2022-12-10T16:55:53;99787.88;;;2.82;92.29
12913;BME280;6524;51.368;11.984;2022-12-10T17:00:54;99791.28;;;2.81;92.44
12913;BME280;6524;51.368;11.984;2022-12-10T17:05:59;99788.91;;;2.63;92.00
12913;BME280;6524;51.368;11.984;2022-12-10T17:11:01;99786.25;;;2.73;93.47
12913;BME280;6524;51.368;11.984;2022-12-10T17:16:21;99791.47;;;2.63;93.29
12913;BME280;6524;51.368;11.984;2022-12-10T17:21:22;99794.16;;;2.52;93.39
12913;BME280;6524;51.368;11.984;2022-12-10T17:26:28;99801.06;;;2.48;93.91
12913;BME280;6524;51.368;11.984;2022-12-10T17:31:29;99790.66;;;2.61;92.93
12913;BME280;6524;51.368;11.984;2022-12-10T17:36:30;99796.84;;;2.38;94.12
12913;BME280;6524;51.368;11.984;2022-12-10T17:41:30;99800.03;;;2.63;93.64
12913;BME280;6524;51.368;11.984;2022-12-10T17:46:30;99805.25;;;2.59;93.24
12913;BME280;6524;51.368;11.984;2022-12-10T17:51:31;99810.28;;;2.69;93.62
12913;BME280;6524;51.368;11.984;2022-12-10T17:56:32;99813.88;;;2.54;93.68
12913;BME280;6524;51.368;11.984;2022-12-10T18:01:32;99808.66;;;2.62;92.97
12913;BME280;6524;51.368;11.984;2022-12-10T18:06:33;99813.91;;;2.50;92.59
12913;BME280;6524;51.368;11.984;2022-12-10T18:11:34;99817.97;;;2.74;97.63
12913;BME280;6524;51.368;11.984;2022-12-10T18:16:35;99827.47;;;2.67;91.31
12913;BME280;6524;51.368;11.984;2022-12-10T18:21:36;99833.41;;;2.74;90.03
12913;BME280;6524;51.368;11.984;2022-12-10T18:26:37;99828.38;;;2.62;90.89
12913;BME280;6524;51.368;11.984;2022-12-10T18:31:37;99832.75;;;2.55;91.07
12913;BME280;6524;51.368;11.984;2022-12-10T18:36:40;99837.19;;;2.36;91.63
12913;BME280;6524;51.368;11.984;2022-12-10T18:41:41;99838.09;;;2.30;93.24
12913;BME280;6524;51.368;11.984;2022-12-10T18:46:41;99826.81;;;2.45;92.18
12913;BME280;6524;51.368;11.984;2022-12-10T18:51:42;99833.59;;;2.55;90.86
12913;BME280;6524;51.368;11.984;2022-12-10T18:56:43;99830.09;;;2.63;91.50
12913;BME280;6524;51.368;11.984;2022-12-10T19:01:44;99833.69;;;2.45;92.14
12913;BME280;6524;51.368;11.984;2022-12-10T19:06:45;99839.59;;;2.54;91.36
12913;BME280;6524;51.368;11.984;2022-12-10T19:11:46;99838.56;;;2.74;91.04
12913;BME280;6524;51.368;11.984;2022-12-10T19:16:49;99842.75;;;2.84;90.16
12913;BME280;6524;51.368;11.984;2022-12-10T19:28:06;99837.75;;;2.69;90.53
12913;BME280;6524;51.368;11.984;2022-12-10T19:33:06;99845.56;;;2.57;88.77
12913;BME280;6524;51.368;11.984;2022-12-10T19:38:10;99835.38;;;2.44;90.23
12913;BME280;6524;51.368;11.984;2022-12-10T19:43:12;99843.81;;;2.62;88.72
12913;BME280;6524;51.368;11.984;2022-12-10T19:48:12;99847.34;;;2.51;88.42
12913;BME280;6524;51.368;11.984;2022-12-10T19:53:13;99847.34;;;2.50;87.67
12913;BME280;6524;51.368;11.984;2022-12-10T19:58:13;99845.53;;;2.60;86.32
12913;BME280;6524;51.368;11.984;2022-12-10T20:03:29;99847.41;;;2.45;86.32
12913;BME280;6524;51.368;11.984;2022-12-10T20:08:29;99842.28;;;2.42;87.20
12913;BME280;6524;51.368;11.984;2022-12-10T20:13:31;99842.38;;;2.30;86.94
12913;BME280;6524;51.368;11.984;2022-12-10T20:18:31;99843.41;;;2.03;86.21
12913;BME280;6524;51.368;11.984;2022-12-10T20:23:32;99851.13;;;2.07;87.89
12913;BME280;6524;51.368;11.984;2022-12-10T20:28:33;99850.22;;;2.12;87.46
12913;BME280;6524;51.368;11.984;2022-12-10T20:33:33;99858.00;;;2.02;86.81
12913;BME280;6524;51.368;11.984;2022-12-10T20:38:33;99852.78;;;2.12;85.60
12913;BME280;6524;51.368;11.984;2022-12-10T20:43:34;99855.50;;;1.87;86.99
12913;BME280;6524;51.368;11.984;2022-12-10T20:48:34;99858.06;;;1.87;86.99
12913;BME280;6524;51.368;11.984;2022-12-10T20:53:35;99856.47;;;1.68;87.50
12913;BME280;6524;51.368;11.984;2022-12-10T20:58:35;99865.06;;;1.67;86.66
12913;BME280;6524;51.368;11.984;2022-12-10T21:03:36;99866.78;;;1.58;86.64
12913;BME280;6524;51.368;11.984;2022-12-10T21:08:37;99868.56;;;1.44;87.31
12913;BME280;6524;51.368;11.984;2022-12-10T21:13:37;99863.41;;;1.52;88.22
12913;BME280;6524;51.368;11.984;2022-12-10T21:18:38;99869.47;;;1.29;89.12
12913;BME280;6524;51.368;11.984;2022-12-10T21:23:39;99866.06;;;1.29;88.00
12913;BME280;6524;51.368;11.984;2022-12-10T21:34:56;99869.44;;;1.37;86.28
12913;BME280;6524;51.368;11.984;2022-12-10T21:39:56;99858.38;;;1.26;86.26
12913;BME280;6524;51.368;11.984;2022-12-10T21:44:58;99858.34;;;1.38;87.09
12913;BME280;6524;51.368;11.984;2022-12-10T21:49:59;99856.63;;;1.34;86.59
12913;BME280;6524;51.368;11.984;2022-12-10T21:54:59;99856.63;;;1.28;86.68
12913;BME280;6524;51.368;11.984;2022-12-10T21:59:59;99854.09;;;1.22;86.16
12913;BME280;6524;51.368;11.984;2022-12-10T22:05:00;99848.97;;;1.20;87.29
12913;BME280;6524;51.368;11.984;2022-12-10T22:10:02;99852.31;;;1.41;86.09
12913;BME280;6524;51.368;11.984;2022-12-10T22:15:03;99848.09;;;1.32;86.48
12913;BME280;6524;51.368;11.984;2022-12-10T22:20:04;99849.78;;;1.25;86.47
12913;BME280;6524;51.368;11.984;2022-12-10T22:25:05;99860.91;;;1.30;84.42
12913;BME280;6524;51.368;11.984;2022-12-10T22:30:06;99856.56;;;1.46;84.78
12913;BME280;6524;51.368;11.984;2022-12-10T22:35:08;99854.94;;;1.27;85.29
12913;BME280;6524;51.368;11.984;2022-12-10T22:40:11;99849.00;;;1.05;85.87
12913;BME280;6524;51.368;11.984;2022-12-10T22:45:11;99853.22;;;1.29;85.69
12913;BME280;6524;51.368;11.984;2022-12-10T22:50:12;99855.78;;;1.32;84.31
12913;BME280;6524;51.368;11.984;2022-12-10T22:55:12;99848.91;;;1.34;85.05
12913;BME280;6524;51.368;11.984;2022-12-10T23:00:16;99849.81;;;1.21;85.11
12913;BME280;6524;51.368;11.984;2022-12-10T23:05:18;99849.84;;;1.11;85.34
12913;BME280;6524;51.368;11.984;2022-12-10T23:10:18;99844.72;;;1.02;85.06
12913;BME280;6524;51.368;11.984;2022-12-10T23:15:19;99847.25;;;1.24;83.54
12913;BME280;6524;51.368;11.984;2022-12-10T23:20:19;99851.50;;;1.22;84.17
12913;BME280;6524;51.368;11.984;2022-12-10T23:25:20;99846.38;;;1.25;83.94
12913;BME280;6524;51.368;11.984;2022-12-10T23:30:20;99853.25;;;1.20;85.31
12913;BME280;6524;51.368;11.984;2022-12-10T23:35:20;99848.19;;;0.95;85.81
12913;BME280;6524;51.368;11.984;2022-12-10T23:40:21;99844.75;;;0.96;85.76
12913;BME280;6524;51.368;11.984;2022-12-10T23:45:21;99841.31;;;1.05;85.52
12913;BME280;6524;51.368;11.984;2022-12-10T23:50:22;99841.34;;;0.94;84.24
12913;BME280;6524;51.368;11.984;2022-12-10T23:55:23;99843.84;;;1.17;83.87
